createdAt,value
2022-09-06T00:01:23.569Z,22.00
2022-09-06T00:03:50.217Z,22.00
2022-09-06T00:06:17.813Z,22.00
2022-09-06T00:08:45.089Z,22.00
2022-09-06T00:11:11.985Z,22.00
2022-09-06T00:13:39.058Z,22.00
2022-09-06T00:16:10.036Z,22.00
2022-09-06T00:18:36.889Z,21.90
2022-09-06T00:21:04.196Z,21.90
2022-09-06T00:23:30.715Z,21.90
2022-09-06T00:26:04.132Z,21.90
2022-09-06T00:28:30.784Z,21.90
2022-09-06T00:30:57.931Z,21.90
2022-09-06T00:33:24.558Z,21.80
2022-09-06T00:35:51.020Z,21.80
2022-09-06T00:38:17.553Z,21.80
2022-09-06T00:40:44.016Z,21.80
2022-09-06T00:43:10.445Z,21.80
2022-09-06T00:45:36.920Z,21.80
2022-09-06T00:48:04.538Z,21.80
2022-09-06T00:50:30.995Z,21.70
2022-09-06T00:52:57.504Z,21.70
2022-09-06T00:55:26.185Z,21.70
2022-09-06T00:57:53.329Z,21.70
2022-09-06T01:00:23.005Z,21.70
2022-09-06T01:02:49.620Z,21.70
2022-09-06T01:05:16.817Z,21.70
2022-09-06T01:07:51.464Z,21.70
2022-09-06T01:10:27.030Z,21.60
2022-09-06T01:13:16.059Z,21.60
2022-09-06T01:16:04.935Z,21.60
2022-09-06T01:18:34.549Z,21.60
2022-09-06T01:21:19.897Z,21.60
2022-09-06T01:23:49.121Z,21.60
2022-09-06T01:26:18.691Z,21.60
2022-09-06T01:28:46.084Z,21.60
2022-09-06T01:31:33.180Z,21.60
2022-09-06T01:34:08.612Z,21.50
2022-09-06T01:37:08.893Z,21.50
2022-09-06T01:39:36.559Z,21.50
2022-09-06T01:42:23.327Z,21.50
2022-09-06T01:44:55.101Z,21.50
2022-09-06T01:47:39.825Z,21.50
2022-09-06T01:50:12.389Z,21.40
2022-09-06T01:52:44.961Z,21.50
2022-09-06T01:55:11.391Z,21.40
2022-09-06T01:57:37.835Z,21.40
2022-09-06T02:00:08.656Z,21.40
2022-09-06T02:02:35.295Z,21.40
2022-09-06T02:05:05.625Z,21.40
2022-09-06T02:07:33.412Z,21.30
2022-09-06T02:10:07.354Z,21.30
2022-09-06T02:12:35.622Z,21.30
2022-09-06T02:15:04.847Z,21.30
2022-09-06T02:17:32.817Z,21.30
2022-09-06T02:20:05.431Z,21.30
2022-09-06T02:22:34.873Z,21.30
2022-09-06T02:25:02.035Z,21.30
2022-09-06T02:27:30.726Z,21.30
2022-09-06T02:29:57.651Z,21.20
2022-09-06T02:32:26.364Z,21.20
2022-09-06T02:34:54.265Z,21.20
2022-09-06T02:37:20.876Z,21.20
2022-09-06T02:39:47.370Z,21.20
2022-09-06T02:42:15.557Z,21.20
2022-09-06T02:44:41.979Z,21.20
2022-09-06T02:47:08.562Z,21.10
2022-09-06T02:49:35.140Z,21.10
2022-09-06T02:52:01.673Z,21.10
2022-09-06T02:54:28.133Z,21.10
2022-09-06T02:56:54.695Z,21.10
2022-09-06T02:59:21.185Z,21.10
2022-09-06T03:01:47.665Z,21.10
2022-09-06T03:04:14.201Z,21.10
2022-09-06T03:06:40.682Z,21.10
2022-09-06T03:09:07.114Z,21.00
2022-09-06T03:11:33.552Z,21.00
2022-09-06T03:14:00.009Z,21.00
2022-09-06T03:16:26.568Z,21.00
2022-09-06T03:18:53.149Z,21.00
2022-09-06T03:21:19.716Z,21.00
2022-09-06T03:23:46.153Z,21.00
2022-09-06T03:26:12.978Z,21.00
2022-09-06T03:28:39.625Z,21.00
2022-09-06T03:31:06.365Z,20.90
2022-09-06T03:33:32.885Z,20.90
2022-09-06T03:36:00.333Z,20.90
2022-09-06T03:38:27.807Z,20.90
2022-09-06T03:40:54.650Z,20.90
2022-09-06T03:43:21.779Z,20.80
2022-09-06T03:45:49.146Z,20.80
2022-09-06T03:48:16.095Z,20.80
2022-09-06T03:50:46.556Z,20.80
2022-09-06T03:53:13.365Z,20.80
2022-09-06T03:55:40.023Z,20.80
2022-09-06T03:58:06.495Z,20.80
2022-09-06T04:00:33.677Z,20.80
2022-09-06T04:03:01.849Z,20.70
2022-09-06T04:05:28.581Z,20.70
2022-09-06T04:07:55.155Z,20.70
2022-09-06T04:10:21.748Z,20.70
2022-09-06T04:12:48.179Z,20.70
2022-09-06T04:15:14.658Z,20.70
2022-09-06T04:17:45.189Z,20.70
2022-09-06T04:20:12.249Z,20.60
2022-09-06T04:22:38.789Z,20.60
2022-09-06T04:25:05.623Z,20.60
2022-09-06T04:27:32.366Z,20.60
2022-09-06T04:29:58.891Z,20.60
2022-09-06T04:32:25.389Z,20.60
2022-09-06T04:34:51.829Z,20.50
2022-09-06T04:37:20.126Z,20.40
2022-09-06T04:39:47.114Z,20.40
2022-09-06T04:42:13.713Z,20.40
2022-09-06T04:44:40.183Z,20.40
2022-09-06T04:47:09.866Z,20.40
2022-09-06T04:49:36.389Z,20.40
2022-09-06T04:52:02.912Z,20.40
2022-09-06T04:54:29.353Z,20.40
2022-09-06T04:56:55.877Z,20.40
2022-09-06T04:59:22.373Z,20.40
2022-09-06T05:01:48.877Z,20.30
2022-09-06T05:04:15.432Z,20.30
2022-09-06T05:06:43.021Z,20.30
2022-09-06T05:09:09.727Z,20.30
2022-09-06T05:11:36.197Z,20.30
2022-09-06T05:14:02.659Z,20.30
2022-09-06T05:16:36.422Z,20.30
2022-09-06T05:19:02.955Z,20.30
2022-09-06T05:21:29.466Z,20.30
2022-09-06T05:23:58.661Z,20.20
2022-09-06T05:26:25.458Z,20.20
2022-09-06T05:28:51.915Z,20.20
2022-09-06T05:31:31.969Z,20.20
2022-09-06T05:33:58.735Z,20.20
2022-09-06T05:36:26.016Z,20.20
2022-09-06T05:38:53.237Z,20.20
2022-09-06T05:41:19.859Z,20.10
2022-09-06T05:43:46.423Z,20.10
2022-09-06T05:46:13.231Z,20.10
2022-09-06T05:48:40.083Z,20.10
2022-09-06T05:51:07.649Z,20.10
2022-09-06T05:53:38.110Z,20.00
2022-09-06T05:56:04.929Z,20.00
2022-09-06T05:58:31.479Z,20.00
2022-09-06T06:01:04.636Z,20.00
2022-09-06T06:03:31.131Z,20.10
2022-09-06T06:05:57.587Z,20.10
2022-09-06T06:08:24.009Z,20.10
2022-09-06T06:10:50.477Z,20.10
2022-09-06T06:13:16.910Z,20.10
2022-09-06T06:15:43.378Z,20.10
2022-09-06T06:18:10.111Z,20.20
2022-09-06T06:20:36.593Z,20.10
2022-09-06T06:23:03.085Z,20.20
2022-09-06T06:25:29.550Z,20.20
2022-09-06T06:27:55.991Z,20.20
2022-09-06T06:30:22.497Z,20.20
2022-09-06T06:32:48.996Z,20.20
2022-09-06T06:35:15.510Z,20.20
2022-09-06T06:37:42.480Z,20.20
2022-09-06T06:40:09.264Z,20.20
2022-09-06T06:42:35.786Z,20.30
2022-09-06T06:45:02.229Z,20.30
2022-09-06T06:47:28.690Z,20.30
2022-09-06T06:49:55.151Z,20.30
2022-09-06T06:52:22.047Z,20.30
2022-09-06T06:54:50.098Z,20.30
2022-09-06T06:57:16.565Z,20.30
2022-09-06T06:59:43.487Z,20.40
2022-09-06T07:02:10.099Z,20.40
2022-09-06T07:04:36.695Z,20.40
2022-09-06T07:12:37.935Z,20.40
2022-09-06T07:15:04.625Z,20.40
2022-09-06T07:17:31.155Z,20.40
2022-09-06T07:20:13.790Z,20.40
2022-09-06T07:22:41.641Z,20.50
2022-09-06T07:25:14.460Z,20.50
2022-09-06T07:30:15.978Z,20.50
2022-09-06T07:32:42.433Z,20.60
2022-09-06T07:35:09.123Z,20.60
2022-09-06T07:37:35.737Z,20.60
2022-09-06T07:40:02.932Z,20.60
2022-09-06T07:42:35.621Z,20.70
2022-09-06T07:45:03.391Z,20.70
2022-09-06T07:55:38.134Z,20.70
2022-09-06T07:58:04.728Z,20.70
2022-09-06T08:00:31.932Z,20.80
2022-09-06T08:02:58.466Z,20.80
2022-09-06T08:10:57.789Z,20.90
2022-09-06T08:13:24.304Z,20.90
2022-09-06T08:15:57.990Z,20.90
2022-09-06T08:18:24.503Z,20.90
2022-09-06T08:20:50.969Z,21.00
2022-09-06T08:23:17.503Z,21.00
2022-09-06T08:25:43.940Z,21.20
2022-09-06T08:28:10.534Z,21.30
2022-09-06T08:30:37.018Z,21.40
2022-09-06T08:33:03.549Z,21.40
2022-09-06T08:35:30.161Z,21.50
2022-09-06T08:37:57.759Z,21.50
2022-09-06T08:40:25.429Z,21.50
2022-09-06T08:42:51.960Z,21.50
2022-09-06T08:45:23.283Z,21.60
2022-09-06T08:47:52.367Z,21.50
2022-09-06T08:50:19.429Z,21.50
2022-09-06T08:53:06.131Z,21.50
2022-09-06T08:55:37.892Z,21.50
2022-09-06T08:58:18.351Z,21.70
2022-09-06T09:00:51.263Z,21.80
2022-09-06T09:03:21.115Z,21.70
2022-09-06T09:05:49.081Z,21.70
2022-09-06T09:08:16.090Z,21.80
2022-09-06T09:10:45.362Z,22.00
2022-09-06T09:13:41.107Z,22.10
2022-09-06T09:16:07.782Z,22.10
2022-09-06T09:18:36.974Z,22.20
2022-09-06T09:21:03.630Z,22.10
2022-09-06T09:23:31.055Z,22.40
2022-09-06T09:26:02.459Z,22.30
2022-09-06T09:28:29.295Z,22.40
2022-09-06T09:30:56.693Z,22.60
2022-09-06T09:33:23.440Z,22.90
2022-09-06T09:35:50.274Z,22.90
2022-09-06T09:38:24.805Z,23.10
2022-09-06T09:40:55.673Z,23.20
2022-09-06T09:43:26.529Z,23.10
2022-09-06T09:46:11.238Z,23.00
2022-09-06T09:48:37.826Z,23.00
2022-09-06T09:51:30.414Z,23.20
2022-09-06T09:53:58.065Z,23.30
2022-09-06T09:56:29.804Z,23.40
2022-09-06T09:58:57.918Z,23.50
2022-09-06T10:01:27.624Z,23.60
2022-09-06T10:09:43.791Z,24.00
2022-09-06T10:12:15.554Z,23.90
2022-09-06T10:14:44.192Z,23.90
2022-09-06T10:17:18.695Z,24.10
2022-09-06T10:19:46.343Z,24.30
2022-09-06T10:22:12.778Z,24.30
2022-09-06T10:24:45.112Z,24.40
2022-09-06T10:27:11.631Z,24.50
2022-09-06T10:29:48.047Z,24.50
2022-09-06T10:32:52.846Z,24.60
2022-09-06T10:35:30.950Z,24.80
2022-09-06T10:38:13.372Z,25.10
2022-09-06T10:40:56.629Z,24.90
2022-09-06T10:43:24.293Z,25.10
2022-09-06T10:45:57.172Z,24.90
2022-09-06T10:48:26.650Z,25.20
2022-09-06T10:50:59.299Z,25.30
2022-09-06T10:53:34.983Z,25.30
2022-09-06T10:56:12.996Z,25.40
2022-09-06T11:01:52.684Z,25.60
2022-09-06T11:04:25.408Z,25.70
2022-09-06T11:06:55.917Z,25.80
2022-09-06T11:09:25.521Z,25.90
2022-09-06T11:12:24.491Z,25.80
2022-09-06T11:14:51.824Z,26.10
2022-09-06T11:17:28.154Z,26.20
2022-09-06T11:20:04.961Z,26.20
2022-09-06T11:22:46.439Z,26.20
2022-09-06T11:25:27.423Z,26.20
2022-09-06T11:27:58.072Z,26.30
2022-09-06T11:30:25.922Z,26.20
2022-09-06T11:33:03.526Z,26.30
2022-09-06T11:35:35.021Z,26.40
2022-09-06T11:38:03.784Z,26.30
2022-09-06T11:40:37.055Z,26.40
2022-09-06T11:43:03.811Z,26.40
2022-09-06T11:45:46.995Z,26.50
2022-09-06T11:48:34.413Z,26.40
2022-09-06T11:51:06.805Z,26.30
2022-09-06T11:53:48.531Z,26.40
2022-09-06T11:56:33.841Z,26.50
2022-09-06T11:59:06.516Z,26.60
2022-09-06T12:01:34.641Z,26.50
2022-09-06T12:06:35.449Z,26.70
2022-09-06T12:09:02.263Z,26.70
2022-09-06T12:11:42.413Z,26.80
2022-09-06T12:14:29.157Z,26.80
2022-09-06T12:16:55.622Z,26.80
2022-09-06T12:19:44.077Z,26.80
2022-09-06T12:22:32.867Z,26.90
2022-09-06T12:25:04.371Z,26.90
2022-09-06T12:27:33.881Z,27.00
2022-09-06T12:30:04.427Z,27.10
2022-09-06T12:32:44.549Z,27.10
2022-09-06T12:38:13.564Z,27.00
2022-09-06T12:40:51.589Z,27.20
2022-09-06T12:43:19.087Z,27.20
2022-09-06T12:45:46.734Z,27.30
2022-09-06T12:48:25.301Z,27.40
2022-09-06T12:51:05.459Z,27.40
2022-09-06T12:53:34.227Z,27.40
2022-09-06T12:56:04.827Z,27.60
2022-09-06T12:58:31.469Z,27.70
2022-09-06T13:01:03.651Z,27.70
2022-09-06T13:03:30.135Z,27.80
2022-09-06T13:05:58.952Z,27.80
2022-09-06T13:08:30.284Z,27.90
2022-09-06T13:10:57.123Z,27.90
2022-09-06T13:13:24.931Z,27.90
2022-09-06T13:15:51.651Z,27.90
2022-09-06T13:18:21.675Z,28.00
2022-09-06T13:21:01.759Z,28.10
2022-09-06T13:23:28.242Z,28.10
2022-09-06T13:25:55.730Z,28.10
2022-09-06T13:28:25.419Z,28.20
2022-09-06T13:31:04.499Z,28.20
2022-09-06T13:33:31.639Z,28.20
2022-09-06T13:36:13.373Z,28.30
2022-09-06T13:38:41.225Z,28.30
2022-09-06T13:41:27.712Z,28.30
2022-09-06T13:44:01.395Z,28.30
2022-09-06T13:46:27.908Z,28.30
2022-09-06T13:48:57.275Z,28.40
2022-09-06T13:51:24.245Z,28.30
2022-09-06T13:53:51.041Z,28.30
2022-09-06T13:56:17.815Z,28.30
2022-09-06T13:58:45.156Z,28.30
2022-09-06T14:01:12.036Z,28.50
2022-09-06T14:03:40.982Z,28.40
2022-09-06T14:06:08.274Z,28.50
2022-09-06T14:08:56.304Z,28.50
2022-09-06T14:11:24.018Z,28.60
2022-09-06T14:13:50.475Z,28.70
2022-09-06T14:16:17.183Z,28.70
2022-09-06T14:18:43.693Z,28.60
2022-09-06T14:21:10.258Z,28.60
2022-09-06T14:23:36.746Z,28.70
2022-09-06T14:26:04.218Z,28.70
2022-09-06T14:28:32.179Z,28.70
2022-09-06T14:30:58.960Z,28.70
2022-09-06T14:33:25.545Z,28.70
2022-09-06T14:35:52.369Z,28.60
2022-09-06T14:38:18.869Z,28.60
2022-09-06T14:40:45.303Z,28.70
2022-09-06T14:43:11.744Z,28.70
2022-09-06T14:45:38.439Z,28.80
2022-09-06T14:48:05.573Z,28.80
2022-09-06T14:50:32.088Z,28.80
2022-09-06T14:52:58.782Z,28.80
2022-09-06T14:55:25.422Z,28.80
2022-09-06T14:57:52.392Z,28.80
2022-09-06T15:00:18.989Z,28.80
2022-09-06T15:02:45.472Z,28.80
2022-09-06T15:05:12.339Z,28.80
2022-09-06T15:07:38.835Z,28.80
2022-09-06T15:10:05.550Z,28.80
2022-09-06T15:12:32.400Z,28.80
2022-09-06T15:14:59.143Z,28.80
2022-09-06T15:17:25.592Z,28.70
2022-09-06T15:19:52.085Z,28.70
2022-09-06T15:22:18.565Z,28.70
2022-09-06T15:24:45.149Z,28.70
2022-09-06T15:27:11.622Z,28.70
2022-09-06T15:29:38.163Z,28.70
2022-09-06T15:32:04.667Z,28.70
2022-09-06T15:34:31.088Z,28.60
2022-09-06T15:36:57.619Z,28.60
2022-09-06T15:39:24.219Z,28.60
2022-09-06T15:41:51.645Z,28.60
2022-09-06T15:44:19.094Z,28.60
2022-09-06T15:46:47.245Z,28.60
2022-09-06T15:49:15.244Z,28.50
2022-09-06T15:51:42.266Z,28.50
2022-09-06T15:54:09.397Z,28.50
2022-09-06T15:56:36.445Z,28.50
2022-09-06T15:59:03.427Z,28.50
2022-09-06T16:01:30.118Z,28.50
2022-09-06T16:04:03.646Z,28.40
2022-09-06T16:06:31.317Z,28.40
2022-09-06T16:08:59.035Z,28.40
2022-09-06T16:11:25.881Z,28.40
2022-09-06T16:13:53.030Z,28.40
2022-09-06T16:16:19.617Z,28.30
2022-09-06T16:18:48.904Z,28.30
2022-09-06T16:21:25.464Z,28.30
2022-09-06T16:23:53.585Z,28.30
2022-09-06T16:26:21.769Z,28.30
2022-09-06T16:28:49.429Z,28.30
2022-09-06T16:31:16.002Z,28.20
2022-09-06T16:33:44.126Z,28.20
2022-09-06T16:36:10.623Z,28.20
2022-09-06T16:38:37.615Z,28.20
2022-09-06T16:41:18.251Z,28.20
2022-09-06T16:43:45.439Z,28.10
2022-09-06T16:46:12.342Z,28.10
2022-09-06T16:48:41.814Z,28.10
2022-09-06T16:51:09.823Z,28.10
2022-09-06T16:53:36.397Z,28.10
2022-09-06T16:56:03.688Z,28.00
2022-09-06T16:58:30.330Z,28.00
2022-09-06T17:00:56.993Z,28.00
2022-09-06T17:03:23.772Z,28.00
2022-09-06T17:05:51.081Z,27.90
2022-09-06T17:08:17.788Z,27.90
2022-09-06T17:10:44.569Z,27.90
2022-09-06T17:13:11.243Z,27.90
2022-09-06T17:15:56.435Z,27.80
2022-09-06T17:18:23.498Z,27.80
2022-09-06T17:20:57.086Z,27.80
2022-09-06T17:23:24.124Z,27.70
2022-09-06T17:25:51.161Z,27.70
2022-09-06T17:28:17.771Z,27.70
2022-09-06T17:30:44.312Z,27.70
2022-09-06T17:33:11.088Z,27.60
2022-09-06T17:35:40.147Z,27.60
2022-09-06T17:38:06.952Z,27.50
2022-09-06T17:40:33.511Z,27.50
2022-09-06T17:43:00.659Z,27.50
2022-09-06T17:45:27.256Z,27.40
2022-09-06T17:47:53.749Z,27.40
2022-09-06T17:50:20.494Z,27.40
2022-09-06T17:52:49.926Z,27.30
2022-09-06T17:55:16.727Z,27.30
2022-09-06T17:57:43.307Z,27.30
2022-09-06T18:00:11.217Z,27.20
2022-09-06T18:02:37.736Z,27.20
2022-09-06T18:05:04.379Z,27.20
2022-09-06T18:07:31.109Z,27.20
2022-09-06T18:09:57.585Z,27.10
2022-09-06T18:12:29.567Z,27.10
2022-09-06T18:14:57.064Z,27.00
2022-09-06T18:17:24.086Z,27.00
2022-09-06T18:19:50.581Z,27.00
2022-09-06T18:22:17.083Z,26.90
2022-09-06T18:24:44.209Z,26.90
2022-09-06T18:27:10.681Z,26.90
2022-09-06T18:29:39.556Z,26.80
2022-09-06T18:32:07.559Z,26.80
2022-09-06T18:34:34.408Z,26.80
2022-09-06T18:37:01.029Z,26.70
2022-09-06T18:39:27.547Z,26.70
2022-09-06T18:42:00.119Z,26.70
2022-09-06T18:44:32.376Z,26.60
2022-09-06T18:47:01.301Z,26.60
2022-09-06T18:49:29.134Z,26.60
2022-09-06T18:51:55.649Z,26.50
2022-09-06T18:54:22.183Z,26.50
2022-09-06T18:56:51.099Z,26.50
2022-09-06T18:59:17.846Z,26.40
2022-09-06T19:01:44.606Z,26.40
2022-09-06T19:04:11.704Z,26.40
2022-09-06T19:06:38.916Z,26.30
2022-09-06T19:09:10.420Z,26.30
2022-09-06T19:11:37.122Z,26.30
2022-09-06T19:14:04.098Z,26.30
2022-09-06T19:16:33.912Z,26.20
2022-09-06T19:19:04.802Z,26.20
2022-09-06T19:21:31.821Z,26.20
2022-09-06T19:23:59.580Z,26.10
2022-09-06T19:26:29.352Z,26.10
2022-09-06T19:28:57.352Z,26.10
2022-09-06T19:31:25.420Z,26.00
2022-09-06T19:33:52.076Z,26.00
2022-09-06T19:36:19.719Z,25.90
2022-09-06T19:39:02.519Z,25.90
2022-09-06T19:41:30.343Z,25.90
2022-09-06T19:43:57.681Z,25.90
2022-09-06T19:46:24.640Z,25.80
2022-09-06T19:48:52.228Z,25.80
2022-09-06T19:51:19.036Z,25.80
2022-09-06T19:53:58.324Z,25.70
2022-09-06T19:56:31.637Z,25.70
2022-09-06T19:58:59.361Z,25.70
2022-09-06T20:01:27.662Z,25.60
2022-09-06T20:03:54.642Z,25.60
2022-09-06T20:06:22.511Z,25.60
2022-09-06T20:08:50.553Z,25.50
2022-09-06T20:11:17.301Z,25.50
2022-09-06T20:13:43.814Z,25.40
2022-09-06T20:16:10.944Z,25.40
2022-09-06T20:18:37.869Z,25.40
2022-09-06T20:21:05.345Z,25.40
2022-09-06T20:23:32.716Z,25.30
2022-09-06T20:26:05.549Z,25.30
2022-09-06T20:28:32.839Z,25.30
2022-09-06T20:31:01.201Z,25.20
2022-09-06T20:33:27.972Z,25.20
2022-09-06T20:35:57.285Z,25.20
2022-09-06T20:38:24.582Z,25.10
2022-09-06T20:40:58.094Z,25.10
2022-09-06T20:43:24.803Z,25.10
2022-09-06T20:45:51.292Z,25.10
2022-09-06T20:48:17.765Z,25.00
2022-09-06T20:50:44.222Z,25.00
2022-09-06T20:53:10.766Z,25.00
2022-09-06T20:55:37.336Z,24.90
2022-09-06T20:58:03.864Z,24.90
2022-09-06T21:00:30.389Z,24.90
2022-09-06T21:02:57.192Z,24.90
2022-09-06T21:05:23.702Z,24.80
2022-09-06T21:07:50.205Z,24.80
2022-09-06T21:10:16.732Z,24.80
2022-09-06T21:12:43.219Z,24.80
2022-09-06T21:15:09.978Z,24.70
2022-09-06T21:17:36.601Z,24.70
2022-09-06T21:20:03.195Z,24.70
2022-09-06T21:22:29.666Z,24.70
2022-09-06T21:24:56.149Z,24.60
2022-09-06T21:27:22.643Z,24.60
2022-09-06T21:29:49.169Z,24.60
2022-09-06T21:32:15.588Z,24.50
2022-09-06T21:34:42.065Z,24.50
2022-09-06T21:37:08.584Z,24.50
2022-09-06T21:39:35.063Z,24.50
2022-09-06T21:42:01.524Z,24.40
2022-09-06T21:44:28.297Z,24.40
2022-09-06T21:46:54.916Z,24.40
2022-09-06T21:49:21.386Z,24.30
2022-09-06T21:51:47.857Z,24.30
2022-09-06T21:54:14.336Z,24.30
2022-09-06T21:56:41.243Z,24.30
2022-09-06T21:59:07.979Z,24.30
2022-09-06T22:01:35.535Z,24.20
2022-09-06T22:04:02.520Z,24.20
2022-09-06T22:06:30.257Z,24.20
2022-09-06T22:08:58.158Z,24.10
2022-09-06T22:11:26.313Z,24.10
2022-09-06T22:13:52.863Z,24.10
2022-09-06T22:16:20.775Z,24.10
2022-09-06T22:18:50.937Z,24.00
2022-09-06T22:21:20.260Z,24.00
2022-09-06T22:23:56.948Z,24.00
2022-09-06T22:26:24.136Z,24.00
2022-09-06T22:28:54.927Z,23.90
2022-09-06T22:31:21.966Z,23.90
2022-09-06T22:33:48.580Z,23.90
2022-09-06T22:36:15.066Z,23.90
2022-09-06T22:38:41.638Z,23.80
2022-09-06T22:41:09.382Z,23.80
2022-09-06T22:43:35.854Z,23.80
2022-09-06T22:46:05.957Z,23.80
2022-09-06T22:48:33.275Z,23.70
2022-09-06T22:51:00.701Z,23.70
2022-09-06T22:53:28.055Z,23.70
2022-09-06T22:55:55.346Z,23.70
2022-09-06T22:58:22.395Z,23.60
2022-09-06T23:00:48.956Z,23.60
2022-09-06T23:03:15.508Z,23.60
2022-09-06T23:05:42.080Z,23.60
2022-09-06T23:08:11.760Z,23.50
2022-09-06T23:10:42.136Z,23.50
2022-09-06T23:13:09.275Z,23.50
2022-09-06T23:15:36.388Z,23.50
2022-09-06T23:18:03.185Z,23.40
2022-09-06T23:20:30.537Z,23.40
2022-09-06T23:22:57.327Z,23.40
2022-09-06T23:25:24.007Z,23.40
2022-09-06T23:27:50.524Z,23.30
2022-09-06T23:30:17.151Z,23.30
2022-09-06T23:32:43.611Z,23.30
2022-09-06T23:35:10.294Z,23.30
2022-09-06T23:37:36.986Z,23.20
2022-09-06T23:40:07.040Z,23.20
2022-09-06T23:42:35.563Z,23.20
2022-09-06T23:45:02.031Z,23.20
2022-09-06T23:47:28.603Z,23.20
2022-09-06T23:49:55.284Z,23.10
2022-09-06T23:52:21.801Z,23.10
2022-09-06T23:54:48.238Z,23.10
2022-09-06T23:57:14.729Z,23.10
2022-09-06T23:59:41.189Z,23.10
